Time;durP1;ratioP1;P1;durP2;ratioP2;P2;SDS_P1;SDS_P2;PMS_P1;PMS_P2;Temp;Humidity;BMP_temperature;BMP_pressure;BME280_temperature;BME280_humidity;BME280_pressure;Samples;Min_cycle;Max_cycle;Signal;HPM_P1;HPM_P2
2021/11/02 00:01:15;;;;;;;9.85;2.30;;;;;;;;;;5054819;28;20060;-84
2021/11/02 00:03:42;;;;;;;7.55;2.50;;;;;;;;;;5054344;28;20041;-84
2021/11/02 00:06:09;;;;;;;6.22;2.10;;;;;;;;;;5055870;28;20040;-83
2021/11/02 00:08:36;;;;;;;9.43;2.38;;;;;;;;;;5037238;28;20433;-83
2021/11/02 00:11:03;;;;;;;8.05;2.20;;;;;;;;;;5038492;28;20140;-83
2021/11/02 00:13:34;;;;;;;9.60;2.80;;;;;;;;;;5038552;28;20053;-83
2021/11/02 00:16:02;;;;;;;14.32;3.10;;;;;;;;;;5046411;28;20281;-83
2021/11/02 00:18:30;;;;;;;8.18;2.30;;;;;;;;;;5043444;28;20329;-83
2021/11/02 00:21:01;;;;;;;10.57;2.60;;;;;;;;;;5068828;28;20226;-83
2021/11/02 00:23:35;;;;;;;7.05;2.33;;;;;;;;;;5039674;28;20144;-83
2021/11/02 00:26:04;;;;;;;11.15;2.67;;;;;;;;;;5062118;28;20064;-83
2021/11/02 00:28:31;;;;;;;13.45;3.38;;;;;;;;;;5073418;28;20048;-83
2021/11/02 00:31:01;;;;;;;18.15;4.00;;;;;;;;;;5074265;28;20049;-83
2021/11/02 00:33:31;;;;;;;9.88;2.90;;;;;;;;;;5080837;28;20154;-84
2021/11/02 00:35:58;;;;;;;6.70;2.05;;;;;;;;;;5072071;28;20040;-84
2021/11/02 00:38:24;;;;;;;12.00;3.38;;;;;;;;;;5089965;28;20036;-83
2021/11/02 00:40:51;;;;;;;6.45;2.10;;;;;;;;;;5073876;28;20040;-83
2021/11/02 00:43:18;;;;;;;10.05;2.00;;;;;;;;;;5091266;28;20041;-83
2021/11/02 00:45:45;;;;;;;6.93;2.22;;;;;;;;;;5092464;28;20048;-83
2021/11/02 00:48:13;;;;;;;10.88;2.20;;;;;;;;;;5097010;28;20094;-83
2021/11/02 00:50:44;;;;;;;7.80;2.47;;;;;;;;;;5078951;28;20056;-83
2021/11/02 00:53:11;;;;;;;9.32;2.55;;;;;;;;;;5061310;28;20083;-83
2021/11/02 00:55:41;;;;;;;8.02;1.88;;;;;;;;;;5061211;28;20048;-83
2021/11/02 00:58:08;;;;;;;9.35;2.65;;;;;;;;;;5079355;28;20076;-83
2021/11/02 01:00:38;;;;;;;10.50;2.90;;;;;;;;;;5060805;28;20049;-83
2021/11/02 01:03:05;;;;;;;12.10;2.92;;;;;;;;;;5075261;28;20119;-84
2021/11/02 01:05:38;;;;;;;7.07;2.63;;;;;;;;;;5074295;28;20090;-83
2021/11/02 01:08:05;;;;;;;8.35;2.78;;;;;;;;;;5056664;28;20059;-83
2021/11/02 01:10:32;;;;;;;16.75;2.47;;;;;;;;;;5057671;28;20373;-83
2021/11/02 01:13:02;;;;;;;11.52;3.85;;;;;;;;;;5055564;28;20040;-83
2021/11/02 01:15:30;;;;;;;8.85;2.65;;;;;;;;;;5066582;28;20111;-83
2021/11/02 01:17:58;;;;;;;9.95;2.90;;;;;;;;;;5058670;28;20193;-83
2021/11/02 01:20:25;;;;;;;8.27;2.60;;;;;;;;;;5082543;28;20056;-83
2021/11/02 01:22:52;;;;;;;10.27;3.33;;;;;;;;;;5064130;28;20041;-83
2021/11/02 01:25:21;;;;;;;9.20;2.80;;;;;;;;;;5064661;28;20105;-83
2021/11/02 01:27:49;;;;;;;7.05;3.03;;;;;;;;;;5062499;28;20052;-83
2021/11/02 01:30:17;;;;;;;7.13;2.88;;;;;;;;;;5058410;28;20174;-83
2021/11/02 01:32:46;;;;;;;8.27;2.30;;;;;;;;;;5075478;28;20178;-83
2021/11/02 01:35:14;;;;;;;10.75;2.55;;;;;;;;;;5075417;28;20056;-83
2021/11/02 01:37:42;;;;;;;8.45;2.90;;;;;;;;;;5058305;28;20059;-83
2021/11/02 01:40:10;;;;;;;11.65;3.63;;;;;;;;;;5064301;28;20052;-83
2021/11/02 01:42:38;;;;;;;8.57;3.58;;;;;;;;;;5069111;28;20052;-83
2021/11/02 01:45:08;;;;;;;12.45;3.83;;;;;;;;;;5061354;28;20359;-83
2021/11/02 01:47:36;;;;;;;13.52;4.13;;;;;;;;;;5095820;28;20040;-83
2021/11/02 01:50:08;;;;;;;13.05;3.70;;;;;;;;;;5078959;28;20048;-83
2021/11/02 01:52:35;;;;;;;13.55;3.80;;;;;;;;;;5096830;28;20048;-82
2021/11/02 01:55:04;;;;;;;10.05;3.25;;;;;;;;;;5077541;28;20102;-83
2021/11/02 01:57:31;;;;;;;10.15;3.35;;;;;;;;;;5095913;28;20080;-83
2021/11/02 01:59:58;;;;;;;15.90;3.38;;;;;;;;;;5095765;28;20111;-83
2021/11/02 02:02:33;;;;;;;11.20;3.45;;;;;;;;;;5078480;28;20110;-83
2021/11/02 02:05:06;;;;;;;7.05;2.38;;;;;;;;;;5078725;28;20075;-83
2021/11/02 02:08:02;;;;;;;11.73;3.10;;;;;;;;;;5097819;28;20055;-83
2021/11/02 02:10:36;;;;;;;11.02;2.88;;;;;;;;;;5062965;28;20416;-83
2021/11/02 02:13:26;;;;;;;11.55;2.75;;;;;;;;;;5096537;28;20044;-83
2021/11/02 02:16:11;;;;;;;6.85;2.92;;;;;;;;;;5095758;28;20083;-83
2021/11/02 02:18:56;;;;;;;14.45;2.88;;;;;;;;;;5078159;28;20489;-83
2021/11/02 02:22:03;;;;;;;16.10;2.95;;;;;;;;;;5087622;28;20044;-83
2021/11/02 02:24:49;;;;;;;15.18;3.83;;;;;;;;;;5025051;28;20169;-83
2021/11/02 02:27:42;;;;;;;6.97;2.70;;;;;;;;;;5042893;28;20544;-83
2021/11/02 02:30:14;;;;;;;9.82;2.25;;;;;;;;;;5067052;28;20080;-83
2021/11/02 02:32:44;;;;;;;8.73;2.45;;;;;;;;;;5082483;28;20040;-83
2021/11/02 02:35:12;;;;;;;10.98;2.38;;;;;;;;;;5080871;28;20148;-83
2021/11/02 02:37:41;;;;;;;13.27;3.10;;;;;;;;;;5099296;28;20226;-83
2021/11/02 02:40:08;;;;;;;4.63;2.40;;;;;;;;;;5080490;28;20056;-84
2021/11/02 02:42:35;;;;;;;6.90;2.63;;;;;;;;;;5079548;28;20368;-83
2021/11/02 02:45:03;;;;;;;8.63;2.80;;;;;;;;;;5097324;28;20068;-83
2021/11/02 02:47:31;;;;;;;10.25;2.90;;;;;;;;;;5081759;28;20094;-83
2021/11/02 02:49:58;;;;;;;10.45;3.25;;;;;;;;;;5081125;28;20419;-83
2021/11/02 02:52:29;;;;;;;11.73;2.88;;;;;;;;;;5096798;28;20048;-84
2021/11/02 02:54:58;;;;;;;12.18;2.90;;;;;;;;;;5097921;28;20385;-84
2021/11/02 02:57:28;;;;;;;9.00;2.95;;;;;;;;;;5096971;28;20109;-83
2021/11/02 02:59:56;;;;;;;12.88;3.10;;;;;;;;;;5080955;28;20128;-83
2021/11/02 03:02:25;;;;;;;10.00;3.60;;;;;;;;;;5077228;28;20438;-83
2021/11/02 03:04:53;;;;;;;8.88;3.58;;;;;;;;;;5079073;28;20044;-83
2021/11/02 03:07:21;;;;;;;9.38;3.55;;;;;;;;;;5078927;28;20048;-83
2021/11/02 03:09:48;;;;;;;10.25;3.47;;;;;;;;;;5097826;28;20201;-83
2021/11/02 03:12:19;;;;;;;13.10;2.90;;;;;;;;;;5096206;28;20119;-83
2021/11/02 03:17:41;;;;;;;13.48;3.53;;;;;;;;;;5074316;28;20545;-83
2021/11/02 03:20:43;;;;;;;4.95;2.75;;;;;;;;;;5080056;28;20051;-83
2021/11/02 03:48:59;;;;;;;8.75;2.88;;;;;;;;;;5062469;28;20047;-84
2021/11/02 03:51:44;;;;;;;7.00;3.17;;;;;;;;;;5077783;28;20393;-83
2021/11/02 03:54:36;;;;;;;8.07;3.10;;;;;;;;;;5095205;28;20091;-84
2021/11/02 03:57:17;;;;;;;7.47;2.90;;;;;;;;;;5082044;28;20427;-84
2021/11/02 04:27:43;;;;;;;13.05;3.55;;;;;;;;;;5098397;28;20048;-83
2021/11/02 04:44:23;;;;;;;10.77;3.88;;;;;;;;;;5084357;28;20070;-84
2021/11/02 04:58:25;;;;;;;16.38;4.57;;;;;;;;;;5050299;28;20308;-83
2021/11/02 05:53:12;;;;;;;14.70;5.50;;;;;;;;;;5052063;28;20049;-83
2021/11/02 06:00:48;;;;;;;15.13;5.60;;;;;;;;;;5057854;28;20079;-82
2021/11/02 06:06:59;;;;;;;11.48;5.43;;;;;;;;;;5026079;28;20106;-84
2021/11/02 06:09:29;;;;;;;13.43;5.47;;;;;;;;;;5066835;28;20072;-84
2021/11/02 06:28:59;;;;;;;14.07;6.18;;;;;;;;;;5085677;28;20040;-84
2021/11/02 06:31:37;;;;;;;14.50;6.45;;;;;;;;;;5086086;28;20146;-84
2021/11/02 06:34:16;;;;;;;17.30;6.22;;;;;;;;;;5086873;28;20079;-83
2021/11/02 06:39:37;;;;;;;16.38;6.85;;;;;;;;;;5075233;28;20424;-85
2021/11/02 06:50:22;;;;;;;17.17;6.47;;;;;;;;;;5054666;28;20093;-83
2021/11/02 07:23:58;;;;;;;16.77;7.55;;;;;;;;;;5031831;28;20461;-83
2021/11/02 07:29:39;;;;;;;25.35;11.80;;;;;;;;;;5073305;28;20136;-83
2021/11/02 08:48:43;;;;;;;12.50;3.80;;;;;;;;;;5069574;28;20440;-85
2021/11/02 08:51:09;;;;;;;15.98;3.80;;;;;;;;;;5042544;28;20531;-84
2021/11/02 08:53:38;;;;;;;7.80;3.83;;;;;;;;;;5066173;28;20109;-85
2021/11/02 08:56:08;;;;;;;10.80;3.88;;;;;;;;;;5061571;28;20044;-85
2021/11/02 08:58:37;;;;;;;12.95;3.58;;;;;;;;;;5050201;28;20163;-84
2021/11/02 09:01:25;;;;;;;14.07;4.10;;;;;;;;;;5040473;28;20072;-84
2021/11/02 09:04:00;;;;;;;11.90;4.35;;;;;;;;;;5047945;28;20280;-84
2021/11/02 09:06:41;;;;;;;9.32;3.03;;;;;;;;;;5029934;28;20099;-84
2021/11/02 09:09:09;;;;;;;14.85;3.80;;;;;;;;;;5046570;28;20246;-85
2021/11/02 09:11:40;;;;;;;11.82;3.35;;;;;;;;;;5050362;28;20071;-84
2021/11/02 09:14:14;;;;;;;11.02;3.75;;;;;;;;;;5051958;28;20052;-84
2021/11/02 09:16:46;;;;;;;14.57;5.72;;;;;;;;;;5059576;28;20482;-85
2021/11/02 09:19:14;;;;;;;12.30;3.53;;;;;;;;;;5072696;28;20143;-84
2021/11/02 09:21:41;;;;;;;10.93;4.10;;;;;;;;;;5072194;28;20055;-84
2021/11/02 09:24:08;;;;;;;12.60;4.25;;;;;;;;;;5071451;28;20082;-85
2021/11/02 09:26:42;;;;;;;13.80;5.15;;;;;;;;;;5088642;28;20066;-85
2021/11/02 09:29:10;;;;;;;10.00;4.30;;;;;;;;;;5045403;28;20045;-84
2021/11/02 09:31:37;;;;;;;7.95;4.03;;;;;;;;;;5064748;28;20230;-84
2021/11/02 09:34:12;;;;;;;9.57;4.88;;;;;;;;;;5066422;28;20259;-85
2021/11/02 09:36:43;;;;;;;8.30;3.85;;;;;;;;;;5070938;28;20152;-85
2021/11/02 09:39:13;;;;;;;11.27;3.88;;;;;;;;;;5066056;28;20098;-86
2021/11/02 09:41:40;;;;;;;15.18;4.82;;;;;;;;;;5078915;28;20126;-86
2021/11/02 09:44:20;;;;;;;9.88;3.95;;;;;;;;;;5049238;28;20219;-83
2021/11/02 09:47:05;;;;;;;13.98;4.38;;;;;;;;;;5082811;28;20423;-84
2021/11/02 09:49:52;;;;;;;;;;;;;;;;;;5058217;28;20371;-84
2021/11/02 09:52:22;;;;;;;8.43;4.25;;;;;;;;;;5070513;28;20108;-85
2021/11/02 09:55:25;;;;;;;11.05;3.63;;;;;;;;;;5051247;28;20106;-86
2021/11/02 09:58:04;;;;;;;9.75;4.00;;;;;;;;;;5048194;28;20072;-84
2021/11/02 10:00:56;;;;;;;13.93;3.88;;;;;;;;;;5046589;28;20045;-84
2021/11/02 10:03:44;;;;;;;8.98;3.80;;;;;;;;;;5049763;28;20063;-85
2021/11/02 10:06:33;;;;;;;11.35;4.10;;;;;;;;;;5041046;28;20056;-85
2021/11/02 10:09:04;;;;;;;10.60;3.78;;;;;;;;;;5041182;28;20100;-84
2021/11/02 10:11:43;;;;;;;9.18;4.07;;;;;;;;;;5060002;28;20414;-84
2021/11/02 10:14:26;;;;;;;11.88;4.30;;;;;;;;;;5028391;28;20044;-85
2021/11/02 10:17:01;;;;;;;8.40;3.88;;;;;;;;;;5055624;28;20121;-84
2021/11/02 10:19:47;;;;;;;8.90;3.95;;;;;;;;;;5056940;28;20060;-84
2021/11/02 10:22:34;;;;;;;10.97;3.93;;;;;;;;;;5053909;28;20068;-84
2021/11/02 10:25:27;;;;;;;11.80;4.20;;;;;;;;;;5050963;28;20095;-84
2021/11/02 10:28:13;;;;;;;7.72;3.80;;;;;;;;;;5049900;28;20040;-84
2021/11/02 10:31:16;;;;;;;8.60;4.25;;;;;;;;;;5040644;28;20460;-84
2021/11/02 10:33:47;;;;;;;9.50;4.35;;;;;;;;;;4961061;28;20473;-84
2021/11/02 10:36:35;;;;;;;12.75;4.43;;;;;;;;;;5032629;28;20150;-84
2021/11/02 10:39:19;;;;;;;9.40;3.65;;;;;;;;;;5049868;28;20045;-84
2021/11/02 10:41:48;;;;;;;10.48;4.18;;;;;;;;;;5046494;28;20237;-84
2021/11/02 10:44:20;;;;;;;10.10;4.68;;;;;;;;;;5065314;28;20049;-84
2021/11/02 10:46:56;;;;;;;8.07;4.20;;;;;;;;;;5047236;28;20057;-84
2021/11/02 10:49:40;;;;;;;10.65;4.05;;;;;;;;;;5051342;28;20139;-85
2021/11/02 10:52:12;;;;;;;10.40;4.05;;;;;;;;;;5050410;28;20105;-84
2021/11/02 10:54:48;;;;;;;10.55;4.38;;;;;;;;;;5066778;28;20048;-83
2021/11/02 10:57:19;;;;;;;17.98;5.97;;;;;;;;;;5089741;28;20132;-83
2021/11/02 10:59:46;;;;;;;9.00;3.70;;;;;;;;;;5072887;28;20333;-83
2021/11/02 11:02:27;;;;;;;10.25;3.88;;;;;;;;;;5048292;28;20109;-84
2021/11/02 11:05:02;;;;;;;5.07;3.50;;;;;;;;;;5049938;28;20051;-84
2021/11/02 11:07:34;;;;;;;9.70;3.60;;;;;;;;;;5051193;28;20048;-84
2021/11/02 11:10:09;;;;;;;11.38;4.00;;;;;;;;;;5050801;28;20048;-83
2021/11/02 11:12:38;;;;;;;9.15;4.20;;;;;;;;;;5068846;28;20056;-83
2021/11/02 11:15:09;;;;;;;9.57;4.00;;;;;;;;;;5064558;28;20059;-83
2021/11/02 11:17:58;;;;;;;5.70;3.22;;;;;;;;;;5067024;28;20607;-83
2021/11/02 11:20:28;;;;;;;11.65;4.03;;;;;;;;;;5029598;28;20053;-84
2021/11/02 11:22:57;;;;;;;10.77;3.65;;;;;;;;;;5044416;28;20144;-83
2021/11/02 11:25:28;;;;;;;6.65;3.47;;;;;;;;;;5046504;28;20052;-83
2021/11/02 11:27:58;;;;;;;7.63;3.40;;;;;;;;;;5045366;28;20155;-84
2021/11/02 11:30:30;;;;;;;10.23;2.80;;;;;;;;;;5047633;28;20090;-83
2021/11/02 11:32:57;;;;;;;12.05;3.20;;;;;;;;;;5052963;28;20293;-83
2021/11/02 11:35:25;;;;;;;7.22;3.17;;;;;;;;;;5053186;28;20214;-83
2021/11/02 11:37:53;;;;;;;9.18;3.65;;;;;;;;;;5073465;28;20175;-83
2021/11/02 11:40:24;;;;;;;6.80;3.05;;;;;;;;;;5068707;28;20115;-83
2021/11/02 11:42:53;;;;;;;6.85;2.58;;;;;;;;;;5049463;28;20633;-83
2021/11/02 11:45:24;;;;;;;7.25;2.63;;;;;;;;;;5065277;28;20113;-83
2021/11/02 11:48:10;;;;;;;5.68;2.75;;;;;;;;;;5065269;28;20095;-82
2021/11/02 11:50:51;;;;;;;8.20;3.08;;;;;;;;;;5049584;28;20343;-82
2021/11/02 11:53:31;;;;;;;10.20;2.97;;;;;;;;;;5058529;28;20444;-83
2021/11/02 11:56:13;;;;;;;5.72;2.38;;;;;;;;;;5049859;28;20124;-83
2021/11/02 11:58:54;;;;;;;9.45;3.60;;;;;;;;;;5064712;28;20279;-83
2021/11/02 12:02:07;;;;;;;13.40;3.08;;;;;;;;;;5049984;28;20045;-84
2021/11/02 12:04:40;;;;;;;9.43;3.50;;;;;;;;;;5057843;28;20053;-82
2021/11/02 12:07:18;;;;;;;7.15;2.70;;;;;;;;;;5056555;28;20059;-82
2021/11/02 12:09:48;;;;;;;4.95;2.90;;;;;;;;;;5048919;28;20213;-82
2021/11/02 12:12:15;;;;;;;10.45;3.00;;;;;;;;;;5047154;28;20052;-83
2021/11/02 12:14:44;;;;;;;13.80;3.20;;;;;;;;;;5065892;28;20237;-84
2021/11/02 12:17:16;;;;;;;12.75;3.90;;;;;;;;;;5064035;28;20135;-84
2021/11/02 12:20:05;;;;;;;13.45;3.00;;;;;;;;;;5066117;28;20390;-84
2021/11/02 12:22:42;;;;;;;6.70;2.65;;;;;;;;;;5046688;28;20603;-84
2021/11/02 12:25:20;;;;;;;7.53;3.00;;;;;;;;;;5068033;28;20056;-82
2021/11/02 12:27:51;;;;;;;10.25;3.75;;;;;;;;;;5045867;28;20191;-81
2021/11/02 12:30:22;;;;;;;8.43;3.08;;;;;;;;;;5061116;28;20091;-83
2021/11/02 12:32:52;;;;;;;8.98;3.85;;;;;;;;;;5044937;28;20118;-81
2021/11/02 12:35:29;;;;;;;9.23;3.75;;;;;;;;;;5044959;28;20053;-80
2021/11/02 12:37:57;;;;;;;10.02;3.53;;;;;;;;;;5046482;28;20084;-81
2021/11/02 12:40:32;;;;;;;6.00;3.75;;;;;;;;;;5064727;28;20102;-81
2021/11/02 12:43:26;;;;;;;11.73;3.95;;;;;;;;;;5047549;28;20095;-82
2021/11/02 12:45:59;;;;;;;9.82;4.18;;;;;;;;;;5051948;28;20033;-82
2021/11/02 12:48:27;;;;;;;7.50;4.25;;;;;;;;;;5080002;28;20154;-82
2021/11/02 12:51:13;;;;;;;7.40;3.83;;;;;;;;;;5064272;28;20127;-81
2021/11/02 12:53:45;;;;;;;10.65;4.53;;;;;;;;;;5046140;28;20128;-80
2021/11/02 12:56:18;;;;;;;7.60;4.05;;;;;;;;;;5068032;28;20312;-81
2021/11/02 12:58:50;;;;;;;8.52;4.47;;;;;;;;;;5076394;28;20094;-81
2021/11/02 13:01:28;;;;;;;5.70;4.13;;;;;;;;;;5060464;28;20106;-81
2021/11/02 13:03:55;;;;;;;12.05;4.93;;;;;;;;;;5057317;28;20475;-81
2021/11/02 13:06:25;;;;;;;10.15;5.53;;;;;;;;;;5053454;28;20150;-81
2021/11/02 13:08:58;;;;;;;8.27;4.60;;;;;;;;;;5064336;28;20117;-84
2021/11/02 13:11:27;;;;;;;13.52;5.25;;;;;;;;;;5047271;28;20049;-84
2021/11/02 13:14:11;;;;;;;10.30;5.07;;;;;;;;;;5065991;28;20102;-85
2021/11/02 13:16:59;;;;;;;9.60;5.40;;;;;;;;;;5069426;28;20150;-85
2021/11/02 13:19:39;;;;;;;9.80;5.57;;;;;;;;;;5041200;28;20076;-85
2021/11/02 13:22:21;;;;;;;9.77;5.50;;;;;;;;;;5069795;28;20075;-85
2021/11/02 13:24:59;;;;;;;11.75;5.85;;;;;;;;;;5051984;28;20433;-84
2021/11/02 13:27:30;;;;;;;11.88;5.85;;;;;;;;;;5052551;28;20302;-84
2021/11/02 13:30:22;;;;;;;11.70;6.05;;;;;;;;;;5055488;28;20314;-84
2021/11/02 13:33:13;;;;;;;12.80;7.00;;;;;;;;;;5049310;28;20095;-85
2021/11/02 13:36:08;;;;;;;11.70;6.28;;;;;;;;;;5063956;28;20276;-83
2021/11/02 13:38:40;;;;;;;11.02;7.20;;;;;;;;;;5057027;28;21138;-84
2021/11/02 13:41:15;;;;;;;16.00;7.25;;;;;;;;;;5069117;28;20407;-85
2021/11/02 13:44:04;;;;;;;10.18;6.10;;;;;;;;;;5081525;28;20054;-85
2021/11/02 13:46:35;;;;;;;11.75;7.07;;;;;;;;;;5049182;28;20055;-85
2021/11/02 13:49:10;;;;;;;9.98;6.82;;;;;;;;;;5065249;28;20049;-85
2021/11/02 13:51:37;;;;;;;14.75;7.53;;;;;;;;;;5049062;28;20072;-85
2021/11/02 13:54:07;;;;;;;14.30;6.25;;;;;;;;;;5060420;28;20056;-84
2021/11/02 13:56:47;;;;;;;10.40;6.85;;;;;;;;;;5055824;28;20036;-85
2021/11/02 13:59:14;;;;;;;11.60;6.90;;;;;;;;;;5081513;28;20106;-84
2021/11/02 14:01:49;;;;;;;11.35;6.50;;;;;;;;;;5063619;28;20098;-84
2021/11/02 14:04:19;;;;;;;13.05;7.50;;;;;;;;;;5056510;28;20049;-84
2021/11/02 14:06:47;;;;;;;10.32;6.90;;;;;;;;;;5077543;28;20056;-85
2021/11/02 14:09:17;;;;;;;11.05;6.95;;;;;;;;;;5046052;28;20101;-85
2021/11/02 14:11:50;;;;;;;13.07;8.55;;;;;;;;;;5060199;28;20083;-84
2021/11/02 14:14:31;;;;;;;13.95;7.40;;;;;;;;;;5035701;28;20463;-84
2021/11/02 14:17:16;;;;;;;11.43;7.28;;;;;;;;;;5048095;28;20391;-84
2021/11/02 14:19:45;;;;;;;15.82;7.97;;;;;;;;;;5047480;28;20474;-84
2021/11/02 14:22:13;;;;;;;10.05;7.45;;;;;;;;;;5046067;28;20413;-84
2021/11/02 14:24:44;;;;;;;12.85;7.60;;;;;;;;;;5064838;28;20099;-85
2021/11/02 14:27:19;;;;;;;10.80;7.38;;;;;;;;;;5038489;28;20087;-84
2021/11/02 14:29:50;;;;;;;11.23;7.15;;;;;;;;;;5048578;28;20072;-84
2021/11/02 14:32:39;;;;;;;12.77;7.47;;;;;;;;;;5038772;28;20041;-84
2021/11/02 14:35:31;;;;;;;11.15;7.90;;;;;;;;;;5021073;28;20045;-85
2021/11/02 14:38:01;;;;;;;11.93;7.93;;;;;;;;;;5026123;28;20107;-84
2021/11/02 14:40:41;;;;;;;12.25;8.02;;;;;;;;;;5025881;28;20104;-84
2021/11/02 14:43:15;;;;;;;14.60;8.48;;;;;;;;;;5007320;28;20213;-84
2021/11/02 14:45:49;;;;;;;10.02;7.10;;;;;;;;;;5043546;28;20193;-84
2021/11/02 14:48:25;;;;;;;12.77;8.40;;;;;;;;;;5011534;28;20072;-84
2021/11/02 14:50:59;;;;;;;14.20;8.75;;;;;;;;;;5020551;28;20085;-84
2021/11/02 14:53:27;;;;;;;9.65;8.05;;;;;;;;;;5038866;28;20095;-85
2021/11/02 14:56:00;;;;;;;13.25;8.20;;;;;;;;;;5041908;28;20060;-84
2021/11/02 15:01:26;;;;;;;9.98;8.20;;;;;;;;;;5040975;28;20368;-84
2021/11/02 15:04:04;;;;;;;11.48;8.57;;;;;;;;;;5020529;28;20433;-85
2021/11/02 15:06:35;;;;;;;14.85;8.02;;;;;;;;;;5021472;28;20264;-84
2021/11/02 15:09:16;;;;;;;11.80;8.07;;;;;;;;;;5020610;28;20486;-81
2021/11/02 15:11:44;;;;;;;10.38;8.52;;;;;;;;;;5026626;28;20052;-82
2021/11/02 15:14:17;;;;;;;12.90;8.82;;;;;;;;;;5042704;28;20218;-82
2021/11/02 15:16:44;;;;;;;17.75;9.38;;;;;;;;;;5024503;28;20182;-82
2021/11/02 15:19:18;;;;;;;14.80;9.30;;;;;;;;;;5026888;28;20045;-81
2021/11/02 15:21:46;;;;;;;11.98;9.30;;;;;;;;;;5027196;28;20053;-82
2021/11/02 15:24:26;;;;;;;11.15;8.90;;;;;;;;;;5057424;28;20045;-85
2021/11/02 15:26:57;;;;;;;13.95;9.82;;;;;;;;;;5066951;28;20055;-85
2021/11/02 15:29:26;;;;;;;17.02;9.60;;;;;;;;;;5063027;28;20428;-85
2021/11/02 15:32:02;;;;;;;26.98;14.82;;;;;;;;;;5046180;28;20534;-84
2021/11/02 15:34:33;;;;;;;15.23;10.05;;;;;;;;;;5062807;28;20048;-85
2021/11/02 15:37:04;;;;;;;12.73;9.95;;;;;;;;;;5026838;28;20242;-84
2021/11/02 15:39:48;;;;;;;13.80;10.80;;;;;;;;;;5045693;28;20036;-84
2021/11/02 15:42:20;;;;;;;17.02;11.18;;;;;;;;;;5048964;28;20048;-85
2021/11/02 15:44:55;;;;;;;15.55;9.48;;;;;;;;;;5050510;28;20052;-85
2021/11/02 15:47:23;;;;;;;14.10;9.30;;;;;;;;;;5052422;28;20053;-84
2021/11/02 15:49:58;;;;;;;18.05;9.57;;;;;;;;;;5051154;28;20198;-84
2021/11/02 15:52:26;;;;;;;13.23;10.40;;;;;;;;;;5041163;28;20067;-84
2021/11/02 15:54:53;;;;;;;16.13;10.88;;;;;;;;;;5055941;28;20064;-85
2021/11/02 15:57:24;;;;;;;22.92;13.75;;;;;;;;;;5044070;28;20119;-85
2021/11/02 16:00:11;;;;;;;27.02;16.80;;;;;;;;;;5046072;28;20111;-85
2021/11/02 16:02:46;;;;;;;27.55;15.30;;;;;;;;;;5034819;28;20079;-84
2021/11/02 16:05:20;;;;;;;22.15;14.52;;;;;;;;;;5050332;28;20060;-85
2021/11/02 16:07:49;;;;;;;25.50;14.48;;;;;;;;;;5060482;28;20048;-84
2021/11/02 16:10:28;;;;;;;22.08;12.13;;;;;;;;;;5045024;28;20170;-83
2021/11/02 16:12:58;;;;;;;17.63;11.68;;;;;;;;;;5045750;28;20206;-83
2021/11/02 16:15:29;;;;;;;15.50;11.93;;;;;;;;;;5052521;28;20048;-83
2021/11/02 16:18:01;;;;;;;13.13;11.60;;;;;;;;;;5050262;28;20044;-83
2021/11/02 16:20:36;;;;;;;14.05;10.80;;;;;;;;;;5073821;28;20052;-83
2021/11/02 16:23:23;;;;;;;17.40;11.30;;;;;;;;;;5054858;28;20129;-84
2021/11/02 16:25:58;;;;;;;17.25;11.75;;;;;;;;;;5068595;28;20109;-84
2021/11/02 16:28:28;;;;;;;18.95;11.43;;;;;;;;;;5064614;28;20072;-84
2021/11/02 16:31:04;;;;;;;15.57;12.52;;;;;;;;;;5068671;28;20247;-83
2021/11/02 16:33:35;;;;;;;25.00;13.02;;;;;;;;;;5059335;28;20063;-83
2021/11/02 16:36:15;;;;;;;17.88;13.65;;;;;;;;;;5057045;28;20055;-84
2021/11/02 16:38:43;;;;;;;19.15;12.23;;;;;;;;;;5049015;28;20436;-83
2021/11/02 16:41:20;;;;;;;19.13;13.32;;;;;;;;;;5071404;28;20221;-82
2021/11/02 16:44:07;;;;;;;19.13;14.00;;;;;;;;;;5040483;28;20211;-83
2021/11/02 16:46:38;;;;;;;20.40;12.55;;;;;;;;;;5050174;28;20049;-84
2021/11/02 16:49:07;;;;;;;22.83;13.73;;;;;;;;;;5061146;28;20045;-82
2021/11/02 16:51:48;;;;;;;19.75;14.80;;;;;;;;;;5052147;28;20049;-83
2021/11/02 16:54:17;;;;;;;23.75;13.65;;;;;;;;;;5054293;28;20223;-83
2021/11/02 16:56:58;;;;;;;17.88;13.95;;;;;;;;;;5043698;28;20044;-84
2021/11/02 16:59:39;;;;;;;23.90;14.90;;;;;;;;;;5041951;28;20061;-83
2021/11/02 17:02:25;;;;;;;20.85;15.02;;;;;;;;;;5059003;28;20041;-84
2021/11/02 17:05:07;;;;;;;21.48;16.00;;;;;;;;;;5072109;28;20049;-83
2021/11/02 17:07:33;;;;;;;20.23;16.35;;;;;;;;;;5059290;28;20057;-83
2021/11/02 17:10:20;;;;;;;30.88;23.02;;;;;;;;;;5044143;28;20045;-84
2021/11/02 17:12:53;;;;;;;28.98;20.05;;;;;;;;;;5073743;28;20048;-84
2021/11/02 17:15:30;;;;;;;26.00;17.42;;;;;;;;;;5062590;28;20304;-83
2021/11/02 17:17:57;;;;;;;30.65;20.35;;;;;;;;;;5096186;28;20105;-83
2021/11/02 17:20:28;;;;;;;39.17;24.65;;;;;;;;;;5058629;28;20044;-82
2021/11/02 17:22:58;;;;;;;34.80;22.35;;;;;;;;;;5077400;28;20044;-84
2021/11/02 17:25:28;;;;;;;36.97;26.02;;;;;;;;;;5073946;28;20048;-84
2021/11/02 17:27:55;;;;;;;36.15;21.60;;;;;;;;;;5057105;28;20432;-84
2021/11/02 17:30:22;;;;;;;31.30;23.35;;;;;;;;;;5057582;28;20079;-84
2021/11/02 17:32:50;;;;;;;30.52;24.20;;;;;;;;;;5076145;28;20122;-84
2021/11/02 17:35:17;;;;;;;29.65;21.85;;;;;;;;;;5071857;28;20044;-83
2021/11/02 17:37:54;;;;;;;39.05;22.25;;;;;;;;;;5049564;28;20143;-83
2021/11/02 17:40:25;;;;;;;35.75;23.73;;;;;;;;;;5051217;28;20304;-83
2021/11/02 17:42:54;;;;;;;30.42;24.10;;;;;;;;;;5050711;28;20056;-82
2021/11/02 17:45:20;;;;;;;29.10;21.75;;;;;;;;;;5051417;28;20123;-83
2021/11/02 17:47:50;;;;;;;31.80;20.27;;;;;;;;;;5052456;28;20258;-83
2021/11/02 17:50:18;;;;;;;28.75;21.17;;;;;;;;;;5063137;28;20040;-83
2021/11/02 17:52:45;;;;;;;73.28;48.70;;;;;;;;;;5046929;28;20293;-84
2021/11/02 17:55:16;;;;;;;47.75;33.08;;;;;;;;;;5054084;28;20044;-82
2021/11/02 17:57:46;;;;;;;31.10;23.20;;;;;;;;;;5070314;28;20048;-83
2021/11/02 18:00:15;;;;;;;29.02;23.25;;;;;;;;;;5062615;28;20222;-82
